Gloucester, New Jersey
Current Conditions -  °F | °C
As of 6:54 AM on Friday 21 Nov 2014 (Local Time) from KPHL Reporting Station
Clear Clear  
Wind Chill: 18°   Ceiling: Unl
Heat Index: 29°   Visibility: 10mi
Dew Point:   Wind: 14mph
Humidity: 41%   Direction: 270°W
Pressure: 30.28"   Gusts: NA
Location:  39.8669°N, 75.093°W
Report Text: KPHL 211154Z 27012KT 10SM CLR M02/M13 A3028 RMK AO2 SLP253 T10171133 10000 21022 51033 $
Loading
Personal Weather Stations






























Interactive Weather Map New forecast layout! Learn more

10-Day Weather Forecast

Advertisements
Track Severe Weather on mobile